Time;durP1;ratioP1;P1;durP2;ratioP2;P2;SDS_P1;SDS_P2;PMS_P1;PMS_P2;Temp;Humidity;BMP_temperature;BMP_pressure;BME280_temperature;BME280_humidity;BME280_pressure;Samples;Min_cycle;Max_cycle;Signal;HPM_P1;HPM_P2
2022/01/29 00:02:06;;;;;;;26.30;14.70;;;6.40;99.90;;;;;;5047291;28;20205;-60
2022/01/29 00:04:33;;;;;;;27.73;14.63;;;6.40;99.90;;;;;;5069345;28;20287;-59
2022/01/29 00:07:00;;;;;;;30.00;15.33;;;6.30;99.90;;;;;;5066348;28;20192;-59
2022/01/29 00:09:27;;;;;;;25.67;16.13;;;6.40;99.90;;;;;;5038930;28;20216;-59
2022/01/29 00:11:55;;;;;;;28.90;16.20;;;6.40;99.90;;;;;;5060907;28;20876;-59
2022/01/29 00:14:22;;;;;;;26.23;15.83;;;6.40;99.90;;;;;;5058613;28;20204;-60
2022/01/29 00:16:49;;;;;;;27.90;14.63;;;6.40;99.90;;;;;;5068530;28;20659;-59
2022/01/29 00:19:16;;;;;;;24.60;15.97;;;6.50;99.90;;;;;;5055294;28;20242;-59
2022/01/29 00:21:43;;;;;;;31.60;16.07;;;6.40;99.90;;;;;;5069630;28;20200;-59
2022/01/29 00:24:10;;;;;;;33.17;17.10;;;6.50;99.90;;;;;;5050473;28;20204;-59
2022/01/29 00:26:37;;;;;;;28.40;15.80;;;6.50;99.90;;;;;;5053468;28;20206;-59
2022/01/29 00:29:14;;;;;;;32.00;17.40;;;6.50;99.90;;;;;;5065165;28;20196;-59
2022/01/29 00:31:42;;;;;;;29.50;16.67;;;6.50;99.90;;;;;;5055702;28;20281;-59
2022/01/29 00:34:08;;;;;;;31.07;16.20;;;6.50;99.90;;;;;;5058211;28;20720;-59
2022/01/29 00:36:36;;;;;;;30.60;17.17;;;6.60;99.90;;;;;;5073165;28;20204;-59
2022/01/29 00:39:03;;;;;;;32.87;17.50;;;6.50;99.90;;;;;;5055017;28;20310;-60
2022/01/29 00:41:30;;;;;;;30.60;17.13;;;6.50;99.90;;;;;;5051601;28;20213;-59
2022/01/29 00:43:57;;;;;;;30.60;18.47;;;6.60;99.90;;;;;;5068591;28;20198;-60
2022/01/29 00:46:25;;;;;;;28.07;18.63;;;6.60;99.90;;;;;;5057106;28;20911;-59
2022/01/29 00:48:52;;;;;;;35.87;19.23;;;6.50;99.90;;;;;;5058242;28;21023;-59
2022/01/29 00:51:19;;;;;;;31.97;18.17;;;6.50;99.90;;;;;;5065063;28;20216;-60
2022/01/29 00:53:46;;;;;;;34.90;18.87;;;6.50;99.90;;;;;;5066545;28;20688;-60
2022/01/29 00:56:13;;;;;;;32.43;19.00;;;6.60;99.90;;;;;;5049166;28;20196;-59
2022/01/29 00:58:40;;;;;;;35.70;18.80;;;6.50;99.90;;;;;;5068137;28;20204;-59
2022/01/29 01:01:07;;;;;;;36.53;18.83;;;6.60;99.90;;;;;;5052966;28;20671;-60
2022/01/29 01:03:36;;;;;;;34.57;20.87;;;6.50;99.90;;;;;;5054999;28;20205;-60
2022/01/29 01:06:03;;;;;;;34.70;18.03;;;6.60;99.90;;;;;;5065018;28;20202;-60
2022/01/29 01:08:30;;;;;;;34.47;20.30;;;6.60;99.90;;;;;;5072252;28;20231;-60
2022/01/29 01:10:57;;;;;;;34.20;18.87;;;6.60;99.90;;;;;;5048478;28;20290;-60
2022/01/29 01:13:24;;;;;;;36.80;19.47;;;6.60;99.90;;;;;;5055277;28;20198;-60
2022/01/29 01:15:51;;;;;;;37.70;19.50;;;6.60;99.90;;;;;;5064527;28;20200;-60
2022/01/29 01:18:18;;;;;;;38.97;21.13;;;6.60;99.90;;;;;;5044725;28;20237;-60
2022/01/29 01:20:46;;;;;;;38.83;20.13;;;6.60;99.90;;;;;;5067795;28;20296;-60
2022/01/29 01:23:13;;;;;;;36.10;20.67;;;6.70;99.90;;;;;;5065642;28;20196;-60
2022/01/29 01:25:40;;;;;;;37.57;20.20;;;6.60;99.90;;;;;;5068125;28;20195;-59
2022/01/29 01:28:07;;;;;;;36.10;20.30;;;6.70;99.90;;;;;;5046466;28;20198;-60
2022/01/29 01:30:35;;;;;;;38.73;20.40;;;6.60;99.90;;;;;;5067038;28;20194;-60
2022/01/29 01:33:03;;;;;;;36.47;20.80;;;6.70;99.90;;;;;;5056495;28;20231;-60
2022/01/29 01:35:34;;;;;;;40.13;20.93;;;6.70;99.90;;;;;;5053883;28;20310;-60
2022/01/29 01:38:10;;;;;;;37.37;20.70;;;6.70;99.90;;;;;;5070865;28;20209;-60
2022/01/29 01:40:39;;;;;;;39.57;22.60;;;6.70;99.90;;;;;;5066407;28;20430;-60
2022/01/29 01:43:06;;;;;;;35.87;20.63;;;6.70;99.90;;;;;;5044952;28;20217;-60
2022/01/29 01:45:33;;;;;;;41.20;22.00;;;6.70;99.90;;;;;;5066760;28;20287;-60
2022/01/29 01:48:03;;;;;;;40.77;23.10;;;6.70;99.90;;;;;;5055878;28;20725;-60
2022/01/29 01:50:30;;;;;;;39.87;21.57;;;6.70;99.90;;;;;;5054367;28;20196;-60
2022/01/29 01:52:58;;;;;;;41.03;21.77;;;6.80;99.90;;;;;;5070791;28;20238;-60
2022/01/29 01:55:26;;;;;;;47.23;24.13;;;6.70;99.90;;;;;;5049619;28;20205;-60
2022/01/29 01:57:54;;;;;;;44.30;22.70;;;6.70;99.90;;;;;;5040952;28;20201;-60
2022/01/29 02:00:21;;;;;;;40.43;22.83;;;6.80;99.90;;;;;;5056278;28;20213;-60
2022/01/29 02:02:48;;;;;;;41.20;22.87;;;6.80;99.90;;;;;;5055668;28;20209;-60
2022/01/29 02:05:15;;;;;;;45.67;23.80;;;6.80;99.90;;;;;;5052847;28;20214;-60
2022/01/29 02:07:42;;;;;;;44.33;24.80;;;6.90;99.90;;;;;;5069608;28;20243;-60
2022/01/29 02:10:11;;;;;;;48.97;24.13;;;6.80;99.90;;;;;;5072999;28;20682;-60
2022/01/29 02:12:47;;;;;;;41.40;23.53;;;6.90;99.90;;;;;;5041827;28;20235;-60
2022/01/29 02:15:15;;;;;;;44.10;23.43;;;6.90;99.90;;;;;;5061916;28;20203;-60
2022/01/29 02:17:42;;;;;;;41.10;23.43;;;6.80;99.90;;;;;;5064751;28;20273;-60
2022/01/29 02:20:09;;;;;;;46.73;25.13;;;6.90;99.90;;;;;;5055252;28;20209;-60
2022/01/29 02:22:39;;;;;;;43.83;24.70;;;6.90;99.90;;;;;;5069965;28;20672;-60
2022/01/29 02:25:07;;;;;;;45.63;23.30;;;6.90;99.90;;;;;;5065123;28;20281;-60
2022/01/29 02:27:34;;;;;;;42.90;24.47;;;6.90;99.90;;;;;;5058659;28;20213;-60
2022/01/29 02:30:01;;;;;;;44.83;24.73;;;6.90;99.90;;;;;;5062832;28;20236;-60
2022/01/29 02:32:28;;;;;;;45.63;25.00;;;6.90;99.90;;;;;;5049636;28;20237;-60
2022/01/29 02:34:54;;;;;;;45.17;25.10;;;7.00;99.90;;;;;;5053903;28;20211;-60
2022/01/29 02:37:21;;;;;;;51.33;24.30;;;6.90;99.90;;;;;;5058886;28;21088;-61
2022/01/29 02:39:50;;;;;;;40.30;24.40;;;6.90;99.90;;;;;;5069541;28;20302;-60
2022/01/29 02:42:16;;;;;;;47.73;26.30;;;6.90;99.90;;;;;;5064986;28;20292;-60
2022/01/29 02:44:43;;;;;;;41.90;24.17;;;6.90;99.90;;;;;;5051960;28;20257;-61
2022/01/29 02:47:26;;;;;;;48.00;25.80;;;7.00;99.90;;;;;;5068718;28;20277;-60
2022/01/29 02:49:53;;;;;;;40.27;23.50;;;7.00;99.90;;;;;;5067369;28;20557;-60
2022/01/29 02:52:20;;;;;;;44.23;24.07;;;7.00;99.90;;;;;;5048057;28;20284;-62
2022/01/29 02:54:48;;;;;;;44.63;25.30;;;7.10;99.90;;;;;;5048013;28;20207;-60
2022/01/29 02:57:16;;;;;;;48.83;24.63;;;7.10;99.90;;;;;;5046016;28;20229;-60
2022/01/29 02:59:43;;;;;;;42.50;24.30;;;7.00;99.90;;;;;;5032118;28;20214;-60
2022/01/29 03:02:10;;;;;;;43.07;24.93;;;7.00;99.90;;;;;;5056463;28;20333;-61
2022/01/29 03:04:37;;;;;;;45.07;25.17;;;7.10;99.90;;;;;;5053947;28;20894;-60
2022/01/29 03:07:04;;;;;;;44.27;23.67;;;7.10;99.90;;;;;;5043785;28;20206;-60
2022/01/29 03:09:31;;;;;;;47.90;24.67;;;7.10;99.90;;;;;;5045346;28;20317;-60
2022/01/29 03:11:59;;;;;;;36.37;22.43;;;7.10;99.90;;;;;;5047412;28;20664;-60
2022/01/29 03:14:26;;;;;;;41.60;23.40;;;7.20;99.90;;;;;;5040930;28;20230;-60
2022/01/29 03:16:53;;;;;;;41.37;23.17;;;7.10;99.90;;;;;;5060189;28;20208;-60
2022/01/29 03:19:20;;;;;;;43.93;22.57;;;7.20;99.90;;;;;;5069833;28;20708;-60
2022/01/29 03:21:47;;;;;;;42.63;23.20;;;7.20;99.90;;;;;;5056477;28;20233;-60
2022/01/29 03:24:14;;;;;;;37.77;22.50;;;7.20;99.90;;;;;;5075645;28;20752;-60
2022/01/29 03:26:41;;;;;;;36.50;22.57;;;7.20;99.90;;;;;;5054686;28;20228;-60
2022/01/29 03:29:09;;;;;;;32.87;21.23;;;7.20;99.90;;;;;;5069339;28;20204;-61
2022/01/29 03:31:36;;;;;;;36.17;21.33;;;7.30;99.90;;;;;;5045189;28;20559;-60
2022/01/29 03:34:03;;;;;;;32.63;21.23;;;7.30;99.90;;;;;;5073657;28;20230;-60
2022/01/29 03:36:30;;;;;;;38.70;21.60;;;7.30;99.90;;;;;;5060040;28;20199;-61
2022/01/29 03:38:58;;;;;;;34.00;21.47;;;7.30;99.90;;;;;;5068537;28;20263;-60
2022/01/29 03:41:25;;;;;;;34.30;20.97;;;7.40;99.90;;;;;;5060505;28;20235;-60
2022/01/29 03:43:54;;;;;;;32.53;20.67;;;7.40;99.90;;;;;;5067874;28;20294;-60
2022/01/29 03:46:22;;;;;;;33.73;21.07;;;7.40;99.90;;;;;;5051453;28;20428;-60
2022/01/29 03:48:49;;;;;;;34.07;19.67;;;7.40;99.90;;;;;;5063748;28;20208;-60
2022/01/29 03:51:16;;;;;;;33.43;20.03;;;7.40;99.90;;;;;;5070049;28;20195;-60
2022/01/29 03:53:43;;;;;;;33.90;20.97;;;7.40;99.90;;;;;;5059054;28;20227;-60
2022/01/29 03:56:10;;;;;;;32.13;20.13;;;7.40;99.90;;;;;;5060025;28;20203;-61
2022/01/29 03:58:37;;;;;;;34.20;20.13;;;7.40;99.90;;;;;;5066434;28;20254;-60
2022/01/29 04:01:04;;;;;;;35.20;20.90;;;7.40;99.90;;;;;;5054435;28;20199;-60
2022/01/29 04:03:33;;;;;;;34.10;19.47;;;7.50;99.90;;;;;;5056811;28;20226;-60
2022/01/29 04:06:00;;;;;;;44.47;21.70;;;7.50;99.90;;;;;;5070906;28;20286;-61
2022/01/29 04:08:27;;;;;;;40.20;21.70;;;7.50;99.90;;;;;;5056074;28;20242;-60
2022/01/29 04:10:54;;;;;;;35.23;21.03;;;7.50;99.90;;;;;;5053859;28;20290;-61
2022/01/29 04:13:23;;;;;;;31.30;19.33;;;7.60;99.90;;;;;;5058195;28;20224;-61
2022/01/29 04:15:51;;;;;;;35.13;20.27;;;7.60;99.90;;;;;;5061211;28;20230;-61
2022/01/29 04:18:19;;;;;;;33.13;19.33;;;7.60;99.90;;;;;;5036762;28;20716;-60
2022/01/29 04:20:47;;;;;;;39.47;20.33;;;7.60;99.90;;;;;;5071793;28;20200;-61
2022/01/29 04:23:14;;;;;;;38.97;20.80;;;7.60;99.90;;;;;;5055507;28;20732;-61
2022/01/29 04:25:41;;;;;;;34.77;20.03;;;7.60;99.90;;;;;;5046927;28;20204;-60
2022/01/29 04:28:11;;;;;;;32.83;19.47;;;7.60;99.90;;;;;;5070107;28;20200;-61
2022/01/29 04:30:44;;;;;;;38.83;20.97;;;7.70;99.90;;;;;;5042689;28;20205;-60
2022/01/29 04:33:28;;;;;;;35.60;20.70;;;7.70;99.90;;;;;;5034092;28;20247;-60
2022/01/29 04:35:57;;;;;;;34.43;20.20;;;7.70;99.90;;;;;;5067506;28;20208;-60
2022/01/29 04:38:24;;;;;;;38.63;20.90;;;7.70;99.90;;;;;;5066153;28;20665;-60
2022/01/29 04:40:52;;;;;;;36.13;20.23;;;7.70;99.90;;;;;;5053381;28;20203;-61
2022/01/29 04:43:19;;;;;;;37.60;20.00;;;7.80;99.90;;;;;;5062684;28;20638;-61
2022/01/29 04:45:45;;;;;;;44.33;21.53;;;7.80;99.90;;;;;;5053679;28;21057;-60
2022/01/29 04:48:14;;;;;;;36.00;20.33;;;7.80;99.90;;;;;;5045524;28;20368;-60
2022/01/29 04:50:41;;;;;;;44.33;21.87;;;7.80;99.90;;;;;;5050211;28;20739;-61
2022/01/29 04:53:09;;;;;;;32.40;18.73;;;7.80;99.90;;;;;;5054752;28;20349;-61
2022/01/29 04:55:36;;;;;;;39.93;21.70;;;7.80;99.90;;;;;;5054557;28;20206;-61
2022/01/29 04:58:04;;;;;;;37.57;20.20;;;7.90;99.90;;;;;;5053979;28;23512;-61
2022/01/29 05:00:32;;;;;;;37.10;20.53;;;7.90;99.90;;;;;;5068704;28;20199;-60
2022/01/29 05:03:09;;;;;;;40.17;20.27;;;7.80;99.90;;;;;;5050899;28;21041;-60
2022/01/29 05:05:37;;;;;;;41.70;20.80;;;7.90;99.90;;;;;;5063364;28;20200;-60
2022/01/29 05:08:04;;;;;;;32.50;18.93;;;7.90;99.90;;;;;;5067904;28;20214;-61
2022/01/29 05:10:34;;;;;;;32.43;18.93;;;7.90;99.90;;;;;;5059289;28;20287;-61
2022/01/29 05:13:05;;;;;;;39.67;19.97;;;7.90;99.90;;;;;;5060758;28;20220;-61
2022/01/29 05:15:38;;;;;;;34.67;19.17;;;8.00;99.90;;;;;;5061253;28;20202;-61
2022/01/29 05:29:15;;;;;;;33.03;19.20;;;8.00;99.90;;;;;;5057317;28;20230;-61
2022/01/29 05:31:42;;;;;;;35.13;19.47;;;8.00;99.90;;;;;;5066305;28;20326;-60
2022/01/29 05:34:09;;;;;;;41.27;19.33;;;8.10;99.90;;;;;;5046948;28;20326;-61
2022/01/29 05:36:36;;;;;;;39.43;19.10;;;8.10;99.90;;;;;;5041797;28;20208;-61
2022/01/29 05:39:04;;;;;;;38.57;19.60;;;8.10;99.90;;;;;;5066291;28;20206;-61
2022/01/29 05:41:32;;;;;;;31.57;17.73;;;8.10;99.90;;;;;;5049730;28;20218;-61
2022/01/29 05:43:59;;;;;;;41.23;20.13;;;8.10;99.90;;;;;;5056320;28;20392;-61
2022/01/29 05:46:26;;;;;;;43.33;21.13;;;8.10;99.90;;;;;;5067126;28;20224;-61
2022/01/29 05:48:53;;;;;;;38.60;19.60;;;8.10;99.90;;;;;;5045044;28;21532;-61
2022/01/29 05:51:20;;;;;;;35.73;18.33;;;8.20;99.90;;;;;;5047087;28;20666;-62
2022/01/29 05:53:47;;;;;;;39.57;19.70;;;8.10;99.90;;;;;;5057429;28;20710;-62
2022/01/29 05:56:14;;;;;;;37.47;19.13;;;8.10;99.90;;;;;;5056171;28;20208;-60
2022/01/29 05:58:42;;;;;;;37.53;19.03;;;8.20;99.90;;;;;;5056234;28;20223;-60
2022/01/29 06:01:10;;;;;;;39.50;20.17;;;8.20;99.90;;;;;;5064178;28;20844;-60
2022/01/29 06:03:36;;;;;;;31.80;20.13;;;8.20;99.90;;;;;;5065192;28;20616;-62
2022/01/29 06:06:03;;;;;;;33.03;19.70;;;8.20;99.90;;;;;;5047465;28;20211;-61
2022/01/29 06:08:30;;;;;;;36.17;19.50;;;8.20;99.90;;;;;;5038921;28;20208;-61
2022/01/29 06:10:57;;;;;;;34.10;17.90;;;8.20;99.90;;;;;;5058958;28;20521;-62
2022/01/29 06:13:24;;;;;;;36.67;18.83;;;8.30;99.90;;;;;;5071516;28;20233;-62
2022/01/29 06:15:53;;;;;;;32.63;18.07;;;8.20;99.90;;;;;;5058054;28;20217;-61
2022/01/29 06:18:22;;;;;;;35.17;17.63;;;8.20;99.90;;;;;;5067367;28;20335;-62
2022/01/29 06:20:51;;;;;;;31.20;16.57;;;8.20;99.90;;;;;;5048740;28;20219;-62
2022/01/29 06:23:24;;;;;;;29.13;16.27;;;8.20;99.90;;;;;;5054701;28;20236;-62
2022/01/29 06:25:51;;;;;;;27.73;16.77;;;8.30;99.90;;;;;;5066460;28;21123;-62
2022/01/29 06:28:18;;;;;;;30.83;17.13;;;8.30;99.90;;;;;;5058272;28;20200;-62
2022/01/29 06:30:45;;;;;;;30.67;17.03;;;8.30;99.90;;;;;;5065123;28;21224;-62
2022/01/29 06:33:14;;;;;;;34.63;17.37;;;8.30;99.90;;;;;;5064395;28;20273;-62
2022/01/29 06:35:43;;;;;;;31.73;15.67;;;8.30;99.90;;;;;;5042784;28;20292;-62
2022/01/29 06:38:13;;;;;;;26.87;14.70;;;8.30;99.90;;;;;;5062059;28;20203;-62
2022/01/29 06:40:41;;;;;;;31.50;15.70;;;8.30;99.90;;;;;;5051202;28;20208;-62
2022/01/29 06:43:08;;;;;;;23.50;14.27;;;8.30;99.90;;;;;;5056996;28;20299;-62
2022/01/29 06:45:39;;;;;;;26.10;13.50;;;8.30;99.90;;;;;;5052203;28;20204;-62
2022/01/29 06:48:07;;;;;;;25.27;14.27;;;8.30;99.90;;;;;;5063944;28;20207;-62
2022/01/29 06:50:36;;;;;;;25.93;15.20;;;8.40;99.90;;;;;;5056123;28;20207;-62
2022/01/29 06:53:04;;;;;;;22.50;13.60;;;8.40;99.90;;;;;;5062467;28;20800;-62
2022/01/29 06:55:31;;;;;;;20.73;12.87;;;8.40;99.90;;;;;;5051541;28;20215;-62
2022/01/29 06:57:58;;;;;;;21.70;12.80;;;8.40;99.90;;;;;;5068400;28;20297;-62
2022/01/29 07:00:25;;;;;;;22.13;13.40;;;8.40;99.90;;;;;;5036308;28;21233;-60
2022/01/29 07:02:52;;;;;;;23.80;12.90;;;8.40;99.90;;;;;;5036456;28;20557;-61
2022/01/29 07:05:19;;;;;;;21.37;12.67;;;8.40;99.90;;;;;;5067222;28;20197;-60
2022/01/29 07:07:47;;;;;;;17.83;11.07;;;8.40;99.90;;;;;;5031047;28;20923;-63
2022/01/29 07:10:16;;;;;;;15.50;11.00;;;8.40;99.90;;;;;;5035646;28;20223;-61
2022/01/29 07:12:43;;;;;;;16.27;10.90;;;8.40;99.90;;;;;;5061549;28;22225;-62
2022/01/29 07:15:11;;;;;;;15.93;10.70;;;8.50;99.90;;;;;;5020401;28;20236;-62
2022/01/29 07:17:39;;;;;;;15.47;10.20;;;8.50;99.90;;;;;;5065052;28;20232;-62
2022/01/29 07:20:07;;;;;;;15.87;10.30;;;8.40;99.90;;;;;;5064777;28;21004;-62
2022/01/29 07:22:35;;;;;;;17.77;10.30;;;8.50;99.90;;;;;;5032200;28;20208;-62
2022/01/29 07:25:04;;;;;;;15.43;10.30;;;8.50;99.90;;;;;;5059989;28;20209;-62
2022/01/29 07:27:31;;;;;;;16.33;9.73;;;8.40;99.90;;;;;;5051923;28;20285;-62
2022/01/29 07:29:58;;;;;;;13.77;9.40;;;8.40;99.90;;;;;;5047435;28;20215;-61
2022/01/29 07:32:26;;;;;;;15.13;10.53;;;8.50;99.90;;;;;;5052752;28;20204;-61
2022/01/29 07:34:53;;;;;;;18.07;10.47;;;8.50;99.90;;;;;;5065426;28;20229;-61
2022/01/29 07:37:20;;;;;;;17.67;10.67;;;8.50;99.90;;;;;;5020705;28;20219;-62
2022/01/29 07:39:47;;;;;;;16.63;10.57;;;8.50;99.90;;;;;;5056235;28;20209;-63
2022/01/29 07:42:15;;;;;;;16.50;10.03;;;8.50;99.90;;;;;;5048623;28;20224;-60
2022/01/29 07:44:42;;;;;;;14.27;9.97;;;8.50;99.90;;;;;;5048271;28;20224;-60
2022/01/29 07:47:09;;;;;;;19.27;10.67;;;8.60;99.90;;;;;;5041406;28;20673;-62
2022/01/29 07:49:36;;;;;;;16.90;10.40;;;8.50;99.90;;;;;;5066925;28;20204;-61
2022/01/29 07:52:03;;;;;;;18.53;11.30;;;8.60;99.90;;;;;;5038192;28;20224;-61
2022/01/29 07:54:30;;;;;;;17.00;10.90;;;8.60;99.90;;;;;;5037954;28;20309;-61
2022/01/29 07:56:57;;;;;;;16.77;10.53;;;8.60;99.90;;;;;;5052024;28;20204;-60
2022/01/29 07:59:26;;;;;;;19.27;11.60;;;8.60;99.90;;;;;;5026269;28;20208;-61
2022/01/29 08:01:53;;;;;;;13.13;10.07;;;8.60;99.90;;;;;;5028240;28;20208;-62
2022/01/29 08:04:23;;;;;;;21.40;11.57;;;8.60;99.90;;;;;;5047782;28;20196;-61
2022/01/29 08:06:50;;;;;;;14.70;10.43;;;8.60;99.90;;;;;;5042945;28;20200;-61
2022/01/29 08:09:16;;;;;;;22.30;10.90;;;8.70;99.90;;;;;;5027058;28;20208;-60
2022/01/29 08:11:43;;;;;;;17.60;11.30;;;8.70;99.90;;;;;;5057238;28;20206;-60
2022/01/29 08:14:10;;;;;;;19.23;10.23;;;8.80;99.90;;;;;;5050677;28;20228;-60
2022/01/29 08:16:39;;;;;;;14.47;10.40;;;8.80;99.90;;;;;;5048520;28;20201;-60
2022/01/29 08:19:06;;;;;;;18.37;10.27;;;8.80;99.90;;;;;;5050690;28;20231;-61
2022/01/29 08:21:33;;;;;;;17.53;11.03;;;8.80;99.90;;;;;;5046101;28;20200;-60
2022/01/29 08:24:00;;;;;;;15.87;9.53;;;8.80;99.90;;;;;;5041578;28;20232;-61
2022/01/29 08:26:28;;;;;;;15.43;10.37;;;8.80;99.90;;;;;;5045904;28;20756;-61
2022/01/29 08:28:55;;;;;;;15.80;10.03;;;8.90;99.90;;;;;;5047778;28;20253;-61
2022/01/29 08:31:22;;;;;;;16.83;11.80;;;8.90;99.90;;;;;;5044969;28;20222;-61
2022/01/29 08:33:50;;;;;;;13.50;9.67;;;8.90;99.90;;;;;;5041409;28;20258;-61
2022/01/29 08:36:17;;;;;;;18.67;10.80;;;8.90;99.90;;;;;;5056578;28;20216;-61
2022/01/29 08:38:44;;;;;;;15.07;9.97;;;8.90;99.90;;;;;;5053051;28;20403;-61
2022/01/29 08:41:11;;;;;;;18.03;10.10;;;8.90;99.90;;;;;;5037042;28;20212;-61
2022/01/29 08:43:38;;;;;;;15.40;9.93;;;9.00;99.90;;;;;;5061187;28;20265;-61
2022/01/29 08:46:05;;;;;;;15.40;10.33;;;8.90;99.90;;;;;;5058434;28;20200;-61
2022/01/29 08:48:32;;;;;;;17.50;10.03;;;9.00;99.90;;;;;;5060891;28;20973;-61
2022/01/29 08:51:01;;;;;;;12.70;8.63;;;9.00;99.90;;;;;;5040469;28;20224;-61
2022/01/29 08:53:28;;;;;;;17.50;9.20;;;9.00;99.90;;;;;;5051277;28;20224;-61
2022/01/29 08:55:55;;;;;;;15.17;8.97;;;9.00;99.90;;;;;;5045176;28;20970;-61
2022/01/29 08:58:22;;;;;;;11.50;8.03;;;9.00;99.90;;;;;;5042120;28;20871;-61
2022/01/29 09:00:49;;;;;;;11.60;7.87;;;9.00;99.90;;;;;;5067449;28;20564;-61
2022/01/29 09:03:17;;;;;;;11.40;8.03;;;9.00;99.90;;;;;;5045044;28;20199;-61
2022/01/29 09:05:45;;;;;;;16.67;8.33;;;9.10;99.90;;;;;;5060500;28;20219;-61
2022/01/29 09:08:14;;;;;;;10.30;7.80;;;9.10;99.90;;;;;;5069004;28;20200;-61
2022/01/29 09:10:41;;;;;;;13.73;8.23;;;9.10;99.90;;;;;;5052707;28;20216;-61
2022/01/29 09:13:09;;;;;;;13.23;7.80;;;9.10;99.90;;;;;;5059111;28;20216;-61
2022/01/29 09:15:36;;;;;;;13.10;7.33;;;9.10;99.90;;;;;;5060108;28;20255;-61
2022/01/29 09:18:04;;;;;;;10.77;7.40;;;9.20;99.90;;;;;;5055869;28;20200;-61
2022/01/29 09:20:31;;;;;;;11.67;6.63;;;9.20;99.90;;;;;;5053046;28;20216;-61
2022/01/29 09:22:58;;;;;;;12.30;6.70;;;9.10;99.90;;;;;;5057836;28;20224;-61
2022/01/29 09:25:27;;;;;;;9.63;6.27;;;9.20;99.90;;;;;;5042471;28;21095;-61
2022/01/29 09:27:55;;;;;;;9.83;5.83;;;9.20;99.90;;;;;;5043378;28;20224;-61
2022/01/29 09:30:22;;;;;;;9.73;5.80;;;9.20;99.90;;;;;;5035734;28;20305;-61
2022/01/29 09:32:50;;;;;;;10.30;5.97;;;9.20;99.90;;;;;;5045219;28;20314;-60
2022/01/29 09:35:19;;;;;;;12.57;6.43;;;9.20;99.90;;;;;;5034774;28;20231;-61
2022/01/29 09:37:46;;;;;;;9.70;5.93;;;9.20;99.90;;;;;;5046014;28;20220;-61
2022/01/29 09:40:14;;;;;;;8.57;6.07;;;9.20;99.90;;;;;;5048454;28;20230;-61
2022/01/29 09:42:45;;;;;;;7.57;5.97;;;9.20;99.90;;;;;;5033286;28;20221;-61
2022/01/29 09:45:14;;;;;;;8.93;5.47;;;9.20;99.90;;;;;;5045074;28;20384;-61
2022/01/29 09:47:42;;;;;;;9.80;6.57;;;9.20;99.90;;;;;;5036247;28;20279;-61
2022/01/29 09:50:09;;;;;;;9.30;5.87;;;9.20;99.90;;;;;;5059308;28;20254;-61
2022/01/29 09:52:36;;;;;;;8.77;6.03;;;9.30;99.90;;;;;;5030145;28;21171;-61
2022/01/29 09:55:04;;;;;;;9.90;6.37;;;9.30;99.90;;;;;;5042477;28;20234;-61
2022/01/29 09:57:31;;;;;;;7.87;5.87;;;9.20;99.90;;;;;;5021588;28;20254;-60
2022/01/29 10:00:00;;;;;;;12.57;6.90;;;9.20;99.90;;;;;;5037355;28;20228;-61
2022/01/29 10:02:27;;;;;;;11.80;7.00;;;9.30;99.90;;;;;;5058218;28;20619;-61
2022/01/29 10:04:57;;;;;;;10.17;7.67;;;9.30;99.90;;;;;;5038035;28;20310;-60
2022/01/29 10:07:27;;;;;;;10.40;7.90;;;9.30;99.90;;;;;;5035716;28;20225;-61
2022/01/29 10:09:55;;;;;;;11.10;7.70;;;9.40;99.90;;;;;;5040117;28;21092;-61
2022/01/29 10:12:24;;;;;;;11.90;8.03;;;9.30;99.90;;;;;;5037378;28;20215;-61
2022/01/29 10:14:54;;;;;;;12.50;8.23;;;9.30;99.90;;;;;;5052229;28;20632;-61
2022/01/29 10:17:43;;;;;;;15.53;8.20;;;9.30;99.90;;;;;;5063289;28;20239;-61
2022/01/29 10:20:12;;;;;;;17.83;8.77;;;9.30;99.90;;;;;;5051858;28;20243;-60
2022/01/29 10:22:39;;;;;;;14.80;8.27;;;9.30;99.90;;;;;;5043542;28;20228;-60
2022/01/29 10:25:11;;;;;;;11.53;7.53;;;9.30;99.90;;;;;;5024134;28;20231;-61
2022/01/29 10:27:38;;;;;;;12.90;7.60;;;9.40;99.90;;;;;;5037985;28;20214;-61
2022/01/29 10:30:08;;;;;;;17.10;7.60;;;9.40;99.90;;;;;;5026360;28;20231;-61
2022/01/29 10:32:36;;;;;;;11.50;7.80;;;9.40;99.90;;;;;;5054345;28;20224;-60
2022/01/29 10:35:05;;;;;;;14.17;7.63;;;9.40;99.90;;;;;;5044196;28;20246;-61
2022/01/29 10:37:32;;;;;;;11.77;7.77;;;9.40;99.90;;;;;;5039893;28;20956;-60
2022/01/29 10:40:01;;;;;;;14.53;7.87;;;9.40;99.90;;;;;;5062262;28;20220;-61
2022/01/29 10:42:31;;;;;;;13.57;7.50;;;9.40;99.90;;;;;;5040274;28;20917;-61
2022/01/29 10:45:02;;;;;;;10.47;7.03;;;9.50;99.90;;;;;;5074317;28;20200;-61
2022/01/29 10:47:29;;;;;;;8.40;6.40;;;9.50;99.90;;;;;;5064675;28;20929;-61
2022/01/29 10:49:59;;;;;;;10.60;6.97;;;9.50;99.90;;;;;;5078285;28;20210;-61
2022/01/29 10:52:29;;;;;;;12.83;6.73;;;9.50;99.90;;;;;;5065629;28;20744;-61
2022/01/29 10:55:02;;;;;;;12.10;6.40;;;9.50;99.90;;;;;;5071200;28;20315;-61
2022/01/29 10:57:33;;;;;;;8.90;6.10;;;9.60;99.90;;;;;;5066271;28;20204;-61
2022/01/29 11:00:02;;;;;;;9.47;5.87;;;9.50;99.90;;;;;;5056379;28;20273;-61
2022/01/29 11:02:30;;;;;;;18.27;6.10;;;9.60;99.90;;;;;;5066285;28;20208;-61
2022/01/29 11:04:57;;;;;;;8.77;5.90;;;9.60;99.90;;;;;;5079335;28;20208;-61
2022/01/29 11:07:28;;;;;;;9.37;6.10;;;9.60;99.90;;;;;;5062471;28;20680;-61
2022/01/29 11:09:56;;;;;;;12.43;5.60;;;9.60;99.90;;;;;;5066789;28;20218;-61
2022/01/29 11:12:25;;;;;;;15.53;5.60;;;9.60;99.90;;;;;;5060385;28;20940;-61
2022/01/29 11:14:54;;;;;;;7.00;5.40;;;9.60;99.90;;;;;;5054769;28;20220;-61
2022/01/29 11:17:21;;;;;;;8.93;4.83;;;9.60;99.90;;;;;;5059737;28;20207;-61
2022/01/29 11:19:48;;;;;;;12.77;5.80;;;9.60;99.90;;;;;;5079105;28;20196;-61
2022/01/29 11:22:21;;;;;;;8.03;4.87;;;9.60;99.90;;;;;;5065440;28;20206;-61
2022/01/29 11:24:57;;;;;;;10.40;5.23;;;9.60;99.90;;;;;;5068270;28;20207;-61
2022/01/29 11:27:26;;;;;;;7.33;4.30;;;9.60;99.90;;;;;;5076809;28;20200;-61
2022/01/29 11:30:01;;;;;;;8.77;4.77;;;9.60;99.90;;;;;;5057472;28;20218;-61
2022/01/29 11:32:32;;;;;;;6.93;4.53;;;9.60;99.90;;;;;;5062132;28;20869;-61
2022/01/29 11:35:08;;;;;;;6.27;4.13;;;9.60;99.90;;;;;;5071316;28;20587;-61
2022/01/29 11:37:48;;;;;;;8.83;4.13;;;9.70;99.90;;;;;;5063245;28;20204;-61
2022/01/29 11:40:19;;;;;;;7.27;4.03;;;9.70;99.90;;;;;;5061379;28;20214;-61
2022/01/29 11:42:54;;;;;;;4.53;3.90;;;9.70;99.90;;;;;;5071648;28;20200;-61
2022/01/29 11:45:41;;;;;;;7.38;3.83;;;9.70;99.90;;;;;;5053425;28;20211;-60
2022/01/29 11:48:30;;;;;;;5.27;3.50;;;9.70;99.90;;;;;;5062592;28;20200;-61
2022/01/29 11:51:00;;;;;;;6.03;3.40;;;9.70;99.90;;;;;;5072789;28;20284;-61
2022/01/29 11:53:58;;;;;;;7.40;3.30;;;9.70;99.90;;;;;;5064281;28;20742;-61
2022/01/29 11:56:29;;;;;;;5.55;3.50;;;9.70;99.90;;;;;;5046848;28;20220;-61
2022/01/29 11:59:24;;;;;;;6.18;3.22;;;9.70;99.90;;;;;;5072896;28;20207;-61
2022/01/29 12:01:52;;;;;;;5.00;2.83;;;9.80;99.90;;;;;;5061535;28;20196;-61
2022/01/29 12:04:21;;;;;;;5.95;2.70;;;9.80;99.90;;;;;;5066010;28;20669;-61
2022/01/29 12:07:16;;;;;;;7.50;3.03;;;9.80;99.90;;;;;;5069468;28;20851;-61
2022/01/29 12:09:47;;;;;;;5.07;2.57;;;9.80;99.90;;;;;;5051996;28;20204;-61
2022/01/29 12:12:17;;;;;;;6.23;2.47;;;9.80;99.90;;;;;;5065336;28;20202;-61
2022/01/29 12:14:45;;;;;;;8.65;2.95;;;9.90;99.90;;;;;;5069661;28;20196;-61
2022/01/29 12:17:12;;;;;;;6.90;3.25;;;9.80;99.90;;;;;;5051696;28;20204;-60
2022/01/29 12:19:40;;;;;;;3.67;2.42;;;9.90;99.90;;;;;;5059509;28;20208;-61
2022/01/29 12:22:11;;;;;;;4.28;2.63;;;9.90;99.90;;;;;;5077949;28;20283;-61
2022/01/29 12:24:40;;;;;;;3.80;2.40;;;9.90;99.90;;;;;;5054955;28;20208;-61
2022/01/29 12:27:09;;;;;;;4.00;2.53;;;9.90;99.90;;;;;;5067413;28;20218;-60
2022/01/29 12:29:36;;;;;;;7.78;2.70;;;9.90;99.90;;;;;;5069525;28;20911;-61
2022/01/29 12:32:04;;;;;;;4.82;2.72;;;9.90;99.90;;;;;;5048543;28;20208;-61
2022/01/29 12:34:32;;;;;;;6.10;2.23;;;9.90;99.90;;;;;;5030031;28;20210;-61
2022/01/29 12:37:09;;;;;;;3.80;2.50;;;9.90;99.90;;;;;;5076104;28;20206;-61
2022/01/29 12:39:37;;;;;;;4.53;2.33;;;9.90;99.90;;;;;;5050417;28;21006;-61
2022/01/29 12:42:12;;;;;;;3.93;2.43;;;9.90;99.90;;;;;;5063807;28;20307;-61
2022/01/29 12:44:41;;;;;;;6.53;2.43;;;9.90;99.90;;;;;;5071050;28;20195;-61
2022/01/29 12:47:08;;;;;;;6.07;2.22;;;9.90;99.90;;;;;;5051926;28;20223;-61
2022/01/29 12:49:43;;;;;;;5.40;1.75;;;9.90;99.90;;;;;;5071586;28;20208;-60
2022/01/29 12:52:15;;;;;;;4.18;1.88;;;9.90;99.90;;;;;;5061337;28;20583;-61
2022/01/29 12:54:51;;;;;;;8.25;2.53;;;10.00;99.90;;;;;;5054025;28;20211;-61
2022/01/29 12:57:18;;;;;;;2.83;1.80;;;10.00;99.90;;;;;;5063659;28;20206;-60
2022/01/29 12:59:46;;;;;;;7.47;2.03;;;10.10;99.90;;;;;;5075402;28;20671;-61
2022/01/29 13:02:13;;;;;;;4.78;2.00;;;10.10;99.90;;;;;;5051851;28;20223;-60